sensor_id;sensor_type;location;lat;lon;timestamp;temperature;humidity
23403;DHT22;11874;48.228;11.684;2022-08-07T00:02:07;20.90;99.90
23403;DHT22;11874;48.228;11.684;2022-08-07T00:04:55;20.80;99.90
23403;DHT22;11874;48.228;11.684;2022-08-07T00:07:24;20.80;99.90
23403;DHT22;11874;48.228;11.684;2022-08-07T00:10:07;20.80;99.90
23403;DHT22;11874;48.228;11.684;2022-08-07T00:12:55;20.90;99.90
23403;DHT22;11874;48.228;11.684;2022-08-07T00:15:27;20.90;99.90
23403;DHT22;11874;48.228;11.684;2022-08-07T00:18:12;20.80;99.90
23403;DHT22;11874;48.228;11.684;2022-08-07T00:20:46;20.80;99.90
23403;DHT22;11874;48.228;11.684;2022-08-07T00:23:16;20.80;99.90
23403;DHT22;11874;48.228;11.684;2022-08-07T00:25:47;20.70;99.90
23403;DHT22;11874;48.228;11.684;2022-08-07T00:28:26;20.80;99.90
23403;DHT22;11874;48.228;11.684;2022-08-07T00:31:00;20.70;99.90
23403;DHT22;11874;48.228;11.684;2022-08-07T00:33:31;20.80;99.90
23403;DHT22;11874;48.228;11.684;2022-08-07T00:35:59;20.80;99.90
23403;DHT22;11874;48.228;11.684;2022-08-07T00:38:28;20.80;99.90
23403;DHT22;11874;48.228;11.684;2022-08-07T00:40:59;20.70;99.90
23403;DHT22;11874;48.228;11.684;2022-08-07T00:43:27;20.70;99.90
23403;DHT22;11874;48.228;11.684;2022-08-07T00:46:15;20.80;99.90
23403;DHT22;11874;48.228;11.684;2022-08-07T00:48:43;20.70;99.90
23403;DHT22;11874;48.228;11.684;2022-08-07T00:51:15;20.70;99.90
23403;DHT22;11874;48.228;11.684;2022-08-07T00:53:44;20.60;99.90
23403;DHT22;11874;48.228;11.684;2022-08-07T00:56:21;20.60;99.90
23403;DHT22;11874;48.228;11.684;2022-08-07T00:59:00;20.60;99.90
23403;DHT22;11874;48.228;11.684;2022-08-07T01:01:28;20.60;99.90
23403;DHT22;11874;48.228;11.684;2022-08-07T01:04:10;20.60;99.90
23403;DHT22;11874;48.228;11.684;2022-08-07T01:06:50;20.60;99.90
23403;DHT22;11874;48.228;11.684;2022-08-07T01:09:20;20.50;99.90
23403;DHT22;11874;48.228;11.684;2022-08-07T01:12:09;20.50;99.90
23403;DHT22;11874;48.228;11.684;2022-08-07T01:14:56;20.50;99.90
23403;DHT22;11874;48.228;11.684;2022-08-07T01:17:27;20.50;99.90
23403;DHT22;11874;48.228;11.684;2022-08-07T01:20:02;20.50;99.90
23403;DHT22;11874;48.228;11.684;2022-08-07T01:22:33;20.50;99.90
23403;DHT22;11874;48.228;11.684;2022-08-07T01:25:04;20.50;99.90
23403;DHT22;11874;48.228;11.684;2022-08-07T01:27:52;20.40;99.90
23403;DHT22;11874;48.228;11.684;2022-08-07T01:30:22;20.40;99.90
23403;DHT22;11874;48.228;11.684;2022-08-07T01:32:53;20.40;99.90
23403;DHT22;11874;48.228;11.684;2022-08-07T01:35:21;20.40;99.90
23403;DHT22;11874;48.228;11.684;2022-08-07T01:37:51;20.40;99.90
23403;DHT22;11874;48.228;11.684;2022-08-07T01:40:20;20.40;99.90
23403;DHT22;11874;48.228;11.684;2022-08-07T01:42:50;20.40;99.90
23403;DHT22;11874;48.228;11.684;2022-08-07T01:45:25;20.30;99.90
23403;DHT22;11874;48.228;11.684;2022-08-07T01:48:05;20.40;99.90
23403;DHT22;11874;48.228;11.684;2022-08-07T01:50:57;20.30;99.90
23403;DHT22;11874;48.228;11.684;2022-08-07T01:53:50;20.30;99.90
23403;DHT22;11874;48.228;11.684;2022-08-07T01:56:45;20.30;99.90
23403;DHT22;11874;48.228;11.684;2022-08-07T01:59:21;20.30;99.90
23403;DHT22;11874;48.228;11.684;2022-08-07T02:02:02;20.30;99.90
23403;DHT22;11874;48.228;11.684;2022-08-07T02:04:38;20.20;99.90
23403;DHT22;11874;48.228;11.684;2022-08-07T02:07:25;20.20;99.90
23403;DHT22;11874;48.228;11.684;2022-08-07T02:10:12;20.20;99.90
23403;DHT22;11874;48.228;11.684;2022-08-07T02:12:43;20.20;99.90
23403;DHT22;11874;48.228;11.684;2022-08-07T02:15:19;20.20;99.90
23403;DHT22;11874;48.228;11.684;2022-08-07T02:17:52;20.20;99.90
23403;DHT22;11874;48.228;11.684;2022-08-07T02:20:22;20.20;99.90
23403;DHT22;11874;48.228;11.684;2022-08-07T02:22:53;20.20;99.90
23403;DHT22;11874;48.228;11.684;2022-08-07T02:25:28;20.10;99.90
23403;DHT22;11874;48.228;11.684;2022-08-07T02:28:17;20.10;99.90
23403;DHT22;11874;48.228;11.684;2022-08-07T02:30:53;20.10;99.90
23403;DHT22;11874;48.228;11.684;2022-08-07T02:33:22;20.00;99.90
23403;DHT22;11874;48.228;11.684;2022-08-07T02:36:12;20.00;99.80
23403;DHT22;11874;48.228;11.684;2022-08-07T02:38:59;20.00;99.90
23403;DHT22;11874;48.228;11.684;2022-08-07T02:41:50;19.90;99.90
23403;DHT22;11874;48.228;11.684;2022-08-07T02:44:23;19.90;99.80
23403;DHT22;11874;48.228;11.684;2022-08-07T02:47:00;19.90;99.90
23403;DHT22;11874;48.228;11.684;2022-08-07T02:49:29;19.90;99.90
23403;DHT22;11874;48.228;11.684;2022-08-07T02:52:22;19.90;99.90
23403;DHT22;11874;48.228;11.684;2022-08-07T02:55:00;19.90;99.80
23403;DHT22;11874;48.228;11.684;2022-08-07T02:57:32;19.80;99.60
23403;DHT22;11874;48.228;11.684;2022-08-07T03:00:04;19.80;99.70
23403;DHT22;11874;48.228;11.684;2022-08-07T03:02:39;19.80;99.60
23403;DHT22;11874;48.228;11.684;2022-08-07T03:05:22;19.80;99.60
23403;DHT22;11874;48.228;11.684;2022-08-07T03:07:51;19.80;99.50
23403;DHT22;11874;48.228;11.684;2022-08-07T03:10:37;19.70;99.50
23403;DHT22;11874;48.228;11.684;2022-08-07T03:13:14;19.70;99.50
23403;DHT22;11874;48.228;11.684;2022-08-07T03:15:46;19.80;99.60
23403;DHT22;11874;48.228;11.684;2022-08-07T03:18:24;19.70;99.50
23403;DHT22;11874;48.228;11.684;2022-08-07T03:21:02;19.90;99.50
23403;DHT22;11874;48.228;11.684;2022-08-07T03:23:37;19.80;99.40
23403;DHT22;11874;48.228;11.684;2022-08-07T03:26:29;19.80;99.40
23403;DHT22;11874;48.228;11.684;2022-08-07T03:29:01;19.70;99.20
23403;DHT22;11874;48.228;11.684;2022-08-07T03:31:30;19.70;99.30
23403;DHT22;11874;48.228;11.684;2022-08-07T03:34:11;19.60;99.30
23403;DHT22;11874;48.228;11.684;2022-08-07T03:36:48;19.60;99.30
23403;DHT22;11874;48.228;11.684;2022-08-07T03:39:19;19.60;99.30
23403;DHT22;11874;48.228;11.684;2022-08-07T03:42:08;19.60;99.30
23403;DHT22;11874;48.228;11.684;2022-08-07T03:44:39;19.60;99.30
23403;DHT22;11874;48.228;11.684;2022-08-07T03:47:07;19.60;99.30
23403;DHT22;11874;48.228;11.684;2022-08-07T03:49:40;19.60;99.40
23403;DHT22;11874;48.228;11.684;2022-08-07T03:52:21;19.60;99.30
23403;DHT22;11874;48.228;11.684;2022-08-07T03:54:53;19.60;99.30
23403;DHT22;11874;48.228;11.684;2022-08-07T03:57:25;19.60;99.40
23403;DHT22;11874;48.228;11.684;2022-08-07T04:00:16;19.60;99.50
23403;DHT22;11874;48.228;11.684;2022-08-07T04:02:54;19.60;99.50
23403;DHT22;11874;48.228;11.684;2022-08-07T04:05:23;19.70;99.60
23403;DHT22;11874;48.228;11.684;2022-08-07T04:08:09;19.60;99.50
23403;DHT22;11874;48.228;11.684;2022-08-07T04:10:37;19.60;99.50
23403;DHT22;11874;48.228;11.684;2022-08-07T04:13:11;19.60;99.50
23403;DHT22;11874;48.228;11.684;2022-08-07T04:15:42;19.50;99.40
23403;DHT22;11874;48.228;11.684;2022-08-07T04:18:14;19.60;99.40
23403;DHT22;11874;48.228;11.684;2022-08-07T04:21:03;19.50;99.40
23403;DHT22;11874;48.228;11.684;2022-08-07T04:23:33;19.60;99.50
23403;DHT22;11874;48.228;11.684;2022-08-07T04:26:21;19.50;99.40
23403;DHT22;11874;48.228;11.684;2022-08-07T04:28:54;19.70;99.50
23403;DHT22;11874;48.228;11.684;2022-08-07T04:31:25;19.50;99.50
23403;DHT22;11874;48.228;11.684;2022-08-07T04:34:14;19.50;99.50
23403;DHT22;11874;48.228;11.684;2022-08-07T04:36:50;19.50;99.30
23403;DHT22;11874;48.228;11.684;2022-08-07T04:39:18;19.50;99.40
23403;DHT22;11874;48.228;11.684;2022-08-07T04:41:51;19.50;99.30
23403;DHT22;11874;48.228;11.684;2022-08-07T04:44:19;19.50;99.30
23403;DHT22;11874;48.228;11.684;2022-08-07T04:46:56;19.40;99.30
23403;DHT22;11874;48.228;11.684;2022-08-07T04:49:40;19.40;99.20
23403;DHT22;11874;48.228;11.684;2022-08-07T04:52:33;19.40;99.30
23403;DHT22;11874;48.228;11.684;2022-08-07T04:55:17;19.40;99.20
23403;DHT22;11874;48.228;11.684;2022-08-07T04:58:16;19.40;99.10
23403;DHT22;11874;48.228;11.684;2022-08-07T05:01:09;19.40;98.80
23403;DHT22;11874;48.228;11.684;2022-08-07T05:03:50;19.40;98.60
23403;DHT22;11874;48.228;11.684;2022-08-07T05:06:37;19.50;98.40
23403;DHT22;11874;48.228;11.684;2022-08-07T05:09:15;19.30;98.30
23403;DHT22;11874;48.228;11.684;2022-08-07T05:12:08;19.40;98.30
23403;DHT22;11874;48.228;11.684;2022-08-07T05:14:43;19.40;98.30
23403;DHT22;11874;48.228;11.684;2022-08-07T05:17:25;19.40;97.90
23403;DHT22;11874;48.228;11.684;2022-08-07T05:20:16;19.40;97.70
23403;DHT22;11874;48.228;11.684;2022-08-07T05:22:50;19.40;97.40
23403;DHT22;11874;48.228;11.684;2022-08-07T05:25:20;19.40;97.40
23403;DHT22;11874;48.228;11.684;2022-08-07T05:28:03;19.40;97.60
23403;DHT22;11874;48.228;11.684;2022-08-07T05:30:50;19.40;97.20
23403;DHT22;11874;48.228;11.684;2022-08-07T05:33:19;19.40;96.90
23403;DHT22;11874;48.228;11.684;2022-08-07T05:35:50;19.40;96.70
23403;DHT22;11874;48.228;11.684;2022-08-07T05:38:21;19.40;96.60
23403;DHT22;11874;48.228;11.684;2022-08-07T05:41:09;19.50;96.50
23403;DHT22;11874;48.228;11.684;2022-08-07T05:43:41;19.40;96.40
23403;DHT22;11874;48.228;11.684;2022-08-07T05:46:30;19.40;96.30
23403;DHT22;11874;48.228;11.684;2022-08-07T05:48:59;19.50;96.20
23403;DHT22;11874;48.228;11.684;2022-08-07T05:51:40;19.50;96.10
23403;DHT22;11874;48.228;11.684;2022-08-07T05:54:12;19.50;96.20
23403;DHT22;11874;48.228;11.684;2022-08-07T05:57:01;19.40;95.70
23403;DHT22;11874;48.228;11.684;2022-08-07T05:59:31;19.40;95.60
23403;DHT22;11874;48.228;11.684;2022-08-07T06:02:21;19.40;95.70
23403;DHT22;11874;48.228;11.684;2022-08-07T06:04:57;19.50;95.50
23403;DHT22;11874;48.228;11.684;2022-08-07T06:07:27;19.50;95.40
23403;DHT22;11874;48.228;11.684;2022-08-07T06:10:15;19.50;95.40
23403;DHT22;11874;48.228;11.684;2022-08-07T06:12:44;19.50;95.30
23403;DHT22;11874;48.228;11.684;2022-08-07T06:15:14;19.50;95.00
23403;DHT22;11874;48.228;11.684;2022-08-07T06:17:46;19.50;94.90
23403;DHT22;11874;48.228;11.684;2022-08-07T06:20:21;19.50;94.70
23403;DHT22;11874;48.228;11.684;2022-08-07T06:23:11;19.60;94.40
23403;DHT22;11874;48.228;11.684;2022-08-07T06:25:59;19.60;94.30
23403;DHT22;11874;48.228;11.684;2022-08-07T06:28:28;19.60;94.20
23403;DHT22;11874;48.228;11.684;2022-08-07T06:30:55;19.70;94.30
23403;DHT22;11874;48.228;11.684;2022-08-07T06:33:24;19.70;94.10
23403;DHT22;11874;48.228;11.684;2022-08-07T06:35:55;19.70;93.90
23403;DHT22;11874;48.228;11.684;2022-08-07T06:38:41;19.80;93.60
23403;DHT22;11874;48.228;11.684;2022-08-07T06:41:33;19.80;93.50
23403;DHT22;11874;48.228;11.684;2022-08-07T06:44:22;19.80;93.80
23403;DHT22;11874;48.228;11.684;2022-08-07T06:46:51;19.90;93.60
23403;DHT22;11874;48.228;11.684;2022-08-07T06:49:38;19.80;93.60
23403;DHT22;11874;48.228;11.684;2022-08-07T06:52:25;19.90;93.60
23403;DHT22;11874;48.228;11.684;2022-08-07T06:55:04;19.90;93.80
23403;DHT22;11874;48.228;11.684;2022-08-07T06:57:56;19.90;93.40
23403;DHT22;11874;48.228;11.684;2022-08-07T07:00:26;19.90;93.40
23403;DHT22;11874;48.228;11.684;2022-08-07T07:02:56;20.00;93.40
23403;DHT22;11874;48.228;11.684;2022-08-07T07:05:36;20.00;93.40
23403;DHT22;11874;48.228;11.684;2022-08-07T07:08:25;20.00;93.50
23403;DHT22;11874;48.228;11.684;2022-08-07T07:10:55;20.00;93.30
23403;DHT22;11874;48.228;11.684;2022-08-07T07:13:30;20.00;93.40
23403;DHT22;11874;48.228;11.684;2022-08-07T07:16:21;20.10;93.30
23403;DHT22;11874;48.228;11.684;2022-08-07T07:19:00;20.10;93.50
23403;DHT22;11874;48.228;11.684;2022-08-07T07:21:50;20.20;93.50
23403;DHT22;11874;48.228;11.684;2022-08-07T07:24:41;20.20;93.60
23403;DHT22;11874;48.228;11.684;2022-08-07T07:27:35;20.20;93.50
23403;DHT22;11874;48.228;11.684;2022-08-07T07:30:30;20.40;93.60
23403;DHT22;11874;48.228;11.684;2022-08-07T07:33:07;20.30;93.60
23403;DHT22;11874;48.228;11.684;2022-08-07T07:35:40;20.40;93.70
23403;DHT22;11874;48.228;11.684;2022-08-07T07:38:30;20.40;93.70
23403;DHT22;11874;48.228;11.684;2022-08-07T07:41:03;20.40;93.60
23403;DHT22;11874;48.228;11.684;2022-08-07T07:43:38;20.50;93.60
23403;DHT22;11874;48.228;11.684;2022-08-07T07:46:30;20.50;93.50
23403;DHT22;11874;48.228;11.684;2022-08-07T07:49:22;20.50;93.10
23403;DHT22;11874;48.228;11.684;2022-08-07T07:52:12;20.50;92.90
23403;DHT22;11874;48.228;11.684;2022-08-07T07:54:42;20.50;93.00
23403;DHT22;11874;48.228;11.684;2022-08-07T07:57:19;20.50;92.80
23403;DHT22;11874;48.228;11.684;2022-08-07T08:00:10;20.60;92.50
23403;DHT22;11874;48.228;11.684;2022-08-07T08:03:04;20.60;92.30
23403;DHT22;11874;48.228;11.684;2022-08-07T08:05:36;20.60;92.00
23403;DHT22;11874;48.228;11.684;2022-08-07T08:08:22;20.60;91.90
23403;DHT22;11874;48.228;11.684;2022-08-07T08:11:03;20.60;91.50
23403;DHT22;11874;48.228;11.684;2022-08-07T08:13:35;20.70;91.70
23403;DHT22;11874;48.228;11.684;2022-08-07T08:16:26;20.70;91.60
23403;DHT22;11874;48.228;11.684;2022-08-07T08:18:58;20.70;91.50
23403;DHT22;11874;48.228;11.684;2022-08-07T08:21:47;20.70;91.10
23403;DHT22;11874;48.228;11.684;2022-08-07T08:24:38;20.80;90.90
23403;DHT22;11874;48.228;11.684;2022-08-07T08:27:43;20.80;90.70
23403;DHT22;11874;48.228;11.684;2022-08-07T08:30:24;20.80;90.60
23403;DHT22;11874;48.228;11.684;2022-08-07T08:32:58;20.80;90.30
23403;DHT22;11874;48.228;11.684;2022-08-07T08:35:27;20.80;90.00
23403;DHT22;11874;48.228;11.684;2022-08-07T08:38:17;20.80;90.00
23403;DHT22;11874;48.228;11.684;2022-08-07T08:40:52;20.80;90.00
23403;DHT22;11874;48.228;11.684;2022-08-07T08:43:27;20.90;90.10
23403;DHT22;11874;48.228;11.684;2022-08-07T08:46:22;20.80;90.10
23403;DHT22;11874;48.228;11.684;2022-08-07T08:49:00;20.90;90.10
23403;DHT22;11874;48.228;11.684;2022-08-07T08:51:37;20.90;90.00
23403;DHT22;11874;48.228;11.684;2022-08-07T08:54:31;20.90;90.20
23403;DHT22;11874;48.228;11.684;2022-08-07T08:57:04;20.90;89.40
23403;DHT22;11874;48.228;11.684;2022-08-07T08:59:40;20.90;88.60
23403;DHT22;11874;48.228;11.684;2022-08-07T09:02:24;20.90;88.70
23403;DHT22;11874;48.228;11.684;2022-08-07T09:05:15;20.90;88.70
23403;DHT22;11874;48.228;11.684;2022-08-07T09:08:17;21.00;88.50
23403;DHT22;11874;48.228;11.684;2022-08-07T09:11:01;21.00;88.70
23403;DHT22;11874;48.228;11.684;2022-08-07T09:13:38;20.70;87.90
23403;DHT22;11874;48.228;11.684;2022-08-07T09:16:14;21.00;88.00
23403;DHT22;11874;48.228;11.684;2022-08-07T09:19:19;21.10;88.10
23403;DHT22;11874;48.228;11.684;2022-08-07T09:22:17;21.00;88.00
23403;DHT22;11874;48.228;11.684;2022-08-07T09:25:09;21.00;87.50
23403;DHT22;11874;48.228;11.684;2022-08-07T09:27:49;21.10;87.50
23403;DHT22;11874;48.228;11.684;2022-08-07T09:30:31;21.10;87.40
23403;DHT22;11874;48.228;11.684;2022-08-07T09:33:05;21.10;87.60
23403;DHT22;11874;48.228;11.684;2022-08-07T09:35:57;21.20;87.80
23403;DHT22;11874;48.228;11.684;2022-08-07T09:38:41;21.20;88.30
23403;DHT22;11874;48.228;11.684;2022-08-07T09:41:27;21.20;87.80
23403;DHT22;11874;48.228;11.684;2022-08-07T09:44:35;21.20;87.50
23403;DHT22;11874;48.228;11.684;2022-08-07T09:47:32;21.30;86.80
23403;DHT22;11874;48.228;11.684;2022-08-07T09:50:29;21.30;86.00
23403;DHT22;11874;48.228;11.684;2022-08-07T09:53:08;21.30;86.00
23403;DHT22;11874;48.228;11.684;2022-08-07T09:55:53;21.30;85.90
23403;DHT22;11874;48.228;11.684;2022-08-07T09:58:55;21.30;86.00
23403;DHT22;11874;48.228;11.684;2022-08-07T10:01:46;21.40;86.40
23403;DHT22;11874;48.228;11.684;2022-08-07T10:04:47;21.40;86.30
23403;DHT22;11874;48.228;11.684;2022-08-07T10:07:32;21.40;86.20
23403;DHT22;11874;48.228;11.684;2022-08-07T10:10:26;21.40;86.20
23403;DHT22;11874;48.228;11.684;2022-08-07T10:13:49;21.40;86.40
23403;DHT22;11874;48.228;11.684;2022-08-07T10:16:37;21.50;87.20
23403;DHT22;11874;48.228;11.684;2022-08-07T10:19:24;21.50;86.90
23403;DHT22;11874;48.228;11.684;2022-08-07T10:22:18;21.60;86.90
23403;DHT22;11874;48.228;11.684;2022-08-07T10:25:10;21.60;86.70
23403;DHT22;11874;48.228;11.684;2022-08-07T10:27:57;21.70;86.50
23403;DHT22;11874;48.228;11.684;2022-08-07T10:30:40;21.80;85.80
23403;DHT22;11874;48.228;11.684;2022-08-07T10:33:29;21.80;85.70
23403;DHT22;11874;48.228;11.684;2022-08-07T10:36:29;21.90;86.30
23403;DHT22;11874;48.228;11.684;2022-08-07T10:39:10;22.00;86.70
23403;DHT22;11874;48.228;11.684;2022-08-07T10:41:52;22.00;86.60
23403;DHT22;11874;48.228;11.684;2022-08-07T10:44:42;22.10;86.40
23403;DHT22;11874;48.228;11.684;2022-08-07T10:47:18;22.20;86.40
23403;DHT22;11874;48.228;11.684;2022-08-07T10:50:13;22.20;86.20
23403;DHT22;11874;48.228;11.684;2022-08-07T10:52:50;22.30;85.90
23403;DHT22;11874;48.228;11.684;2022-08-07T10:55:25;22.30;85.40
23403;DHT22;11874;48.228;11.684;2022-08-07T10:58:14;22.40;85.20
23403;DHT22;11874;48.228;11.684;2022-08-07T11:01:07;22.40;85.00
23403;DHT22;11874;48.228;11.684;2022-08-07T11:03:48;22.50;85.00
23403;DHT22;11874;48.228;11.684;2022-08-07T11:09:33;22.50;85.10
23403;DHT22;11874;48.228;11.684;2022-08-07T11:12:33;22.60;85.20
23403;DHT22;11874;48.228;11.684;2022-08-07T11:15:07;22.60;84.80
23403;DHT22;11874;48.228;11.684;2022-08-07T11:17:47;22.60;84.60
23403;DHT22;11874;48.228;11.684;2022-08-07T11:20:23;22.60;84.30
23403;DHT22;11874;48.228;11.684;2022-08-07T11:23:00;22.60;84.40
23403;DHT22;11874;48.228;11.684;2022-08-07T11:25:35;22.60;84.30
23403;DHT22;11874;48.228;11.684;2022-08-07T11:28:18;22.50;84.10
23403;DHT22;11874;48.228;11.684;2022-08-07T11:30:53;22.60;84.10
23403;DHT22;11874;48.228;11.684;2022-08-07T11:33:27;22.60;84.20
23403;DHT22;11874;48.228;11.684;2022-08-07T11:36:33;22.70;84.40
23403;DHT22;11874;48.228;11.684;2022-08-07T11:39:12;22.70;84.20
23403;DHT22;11874;48.228;11.684;2022-08-07T11:41:51;22.60;84.30
23403;DHT22;11874;48.228;11.684;2022-08-07T11:44:36;22.70;84.40
23403;DHT22;11874;48.228;11.684;2022-08-07T11:47:28;22.70;84.80
23403;DHT22;11874;48.228;11.684;2022-08-07T11:50:34;22.60;84.90
23403;DHT22;11874;48.228;11.684;2022-08-07T11:53:33;22.60;85.20
23403;DHT22;11874;48.228;11.684;2022-08-07T11:56:36;22.60;85.10
23403;DHT22;11874;48.228;11.684;2022-08-07T11:59:20;22.60;85.10
23403;DHT22;11874;48.228;11.684;2022-08-07T12:02:19;22.60;84.70
23403;DHT22;11874;48.228;11.684;2022-08-07T12:05:06;22.60;84.10
23403;DHT22;11874;48.228;11.684;2022-08-07T12:07:56;22.60;84.20
23403;DHT22;11874;48.228;11.684;2022-08-07T12:10:36;22.60;84.70
23403;DHT22;11874;48.228;11.684;2022-08-07T12:13:14;22.60;85.10
23403;DHT22;11874;48.228;11.684;2022-08-07T12:16:09;22.60;84.60
23403;DHT22;11874;48.228;11.684;2022-08-07T12:19:00;22.70;84.50
23403;DHT22;11874;48.228;11.684;2022-08-07T12:21:36;22.60;84.60
23403;DHT22;11874;48.228;11.684;2022-08-07T12:24:32;22.70;84.90
23403;DHT22;11874;48.228;11.684;2022-08-07T12:27:08;22.70;84.80
23403;DHT22;11874;48.228;11.684;2022-08-07T12:29:46;22.80;84.70
23403;DHT22;11874;48.228;11.684;2022-08-07T12:32:20;22.70;84.20
23403;DHT22;11874;48.228;11.684;2022-08-07T12:34:51;22.80;84.50
23403;DHT22;11874;48.228;11.684;2022-08-07T12:37:23;22.80;84.30
23403;DHT22;11874;48.228;11.684;2022-08-07T12:40:12;22.90;83.40
23403;DHT22;11874;48.228;11.684;2022-08-07T12:43:05;22.90;82.90
23403;DHT22;11874;48.228;11.684;2022-08-07T12:45:44;23.00;82.00
23403;DHT22;11874;48.228;11.684;2022-08-07T12:48:28;23.00;81.00
23403;DHT22;11874;48.228;11.684;2022-08-07T12:51:18;23.00;81.40
23403;DHT22;11874;48.228;11.684;2022-08-07T12:53:50;23.20;81.60
23403;DHT22;11874;48.228;11.684;2022-08-07T12:56:41;23.20;82.00
23403;DHT22;11874;48.228;11.684;2022-08-07T12:59:26;23.30;82.40
23403;DHT22;11874;48.228;11.684;2022-08-07T13:02:28;23.40;82.50
23403;DHT22;11874;48.228;11.684;2022-08-07T13:05:06;23.40;82.00
23403;DHT22;11874;48.228;11.684;2022-08-07T13:08:13;23.60;82.30
23403;DHT22;11874;48.228;11.684;2022-08-07T13:10:50;23.60;82.10
23403;DHT22;11874;48.228;11.684;2022-08-07T13:13:31;23.70;81.60
23403;DHT22;11874;48.228;11.684;2022-08-07T13:16:23;23.80;81.50
23403;DHT22;11874;48.228;11.684;2022-08-07T13:19:00;23.90;81.20
23403;DHT22;11874;48.228;11.684;2022-08-07T13:21:31;23.80;81.00
23403;DHT22;11874;48.228;11.684;2022-08-07T13:24:24;23.90;79.70
23403;DHT22;11874;48.228;11.684;2022-08-07T13:27:02;24.00;79.50
23403;DHT22;11874;48.228;11.684;2022-08-07T13:29:37;24.00;79.10
23403;DHT22;11874;48.228;11.684;2022-08-07T13:32:19;24.20;78.70
23403;DHT22;11874;48.228;11.684;2022-08-07T13:35:06;24.20;78.20
23403;DHT22;11874;48.228;11.684;2022-08-07T13:37:41;24.40;77.60
23403;DHT22;11874;48.228;11.684;2022-08-07T13:40:26;24.40;77.90
23403;DHT22;11874;48.228;11.684;2022-08-07T13:43:10;24.40;77.80
23403;DHT22;11874;48.228;11.684;2022-08-07T13:45:43;24.50;77.40
23403;DHT22;11874;48.228;11.684;2022-08-07T13:48:36;24.50;77.50
23403;DHT22;11874;48.228;11.684;2022-08-07T13:51:07;24.60;79.10
23403;DHT22;11874;48.228;11.684;2022-08-07T13:53:57;24.70;78.30
23403;DHT22;11874;48.228;11.684;2022-08-07T13:56:29;24.70;77.50
23403;DHT22;11874;48.228;11.684;2022-08-07T13:59:08;24.80;78.10
23403;DHT22;11874;48.228;11.684;2022-08-07T14:01:42;24.90;77.40
23403;DHT22;11874;48.228;11.684;2022-08-07T14:04:31;24.90;76.70
23403;DHT22;11874;48.228;11.684;2022-08-07T14:07:05;25.00;76.40
23403;DHT22;11874;48.228;11.684;2022-08-07T14:09:36;25.10;76.20
23403;DHT22;11874;48.228;11.684;2022-08-07T14:12:36;25.40;76.10
23403;DHT22;11874;48.228;11.684;2022-08-07T14:15:26;25.80;75.20
23403;DHT22;11874;48.228;11.684;2022-08-07T14:18:03;26.00;75.10
23403;DHT22;11874;48.228;11.684;2022-08-07T14:21:00;26.40;74.80
23403;DHT22;11874;48.228;11.684;2022-08-07T14:23:38;26.70;73.30
23403;DHT22;11874;48.228;11.684;2022-08-07T14:26:31;27.00;72.30
23403;DHT22;11874;48.228;11.684;2022-08-07T14:29:04;27.20;72.10
23403;DHT22;11874;48.228;11.684;2022-08-07T14:31:52;27.30;71.70
23403;DHT22;11874;48.228;11.684;2022-08-07T14:34:25;27.30;70.50
23403;DHT22;11874;48.228;11.684;2022-08-07T14:37:16;27.20;70.30
23403;DHT22;11874;48.228;11.684;2022-08-07T14:39:46;27.00;71.20
23403;DHT22;11874;48.228;11.684;2022-08-07T14:42:35;26.80;71.20
23403;DHT22;11874;48.228;11.684;2022-08-07T14:45:26;26.70;71.30
23403;DHT22;11874;48.228;11.684;2022-08-07T14:48:17;26.50;71.20
23403;DHT22;11874;48.228;11.684;2022-08-07T14:50:46;26.40;71.00
23403;DHT22;11874;48.228;11.684;2022-08-07T14:53:40;26.30;71.60
23403;DHT22;11874;48.228;11.684;2022-08-07T14:56:29;26.20;71.80
23403;DHT22;11874;48.228;11.684;2022-08-07T14:59:02;26.10;71.50
23403;DHT22;11874;48.228;11.684;2022-08-07T15:01:52;26.00;71.80
23403;DHT22;11874;48.228;11.684;2022-08-07T15:04:24;25.90;71.60
23403;DHT22;11874;48.228;11.684;2022-08-07T15:06:55;25.70;71.60
23403;DHT22;11874;48.228;11.684;2022-08-07T15:09:27;25.60;72.20
23403;DHT22;11874;48.228;11.684;2022-08-07T15:12:21;25.50;72.50
23403;DHT22;11874;48.228;11.684;2022-08-07T15:15:02;25.40;72.80
23403;DHT22;11874;48.228;11.684;2022-08-07T15:17:37;25.40;73.30
23403;DHT22;11874;48.228;11.684;2022-08-07T15:20:24;25.30;73.70
23403;DHT22;11874;48.228;11.684;2022-08-07T15:23:07;25.30;74.60
23403;DHT22;11874;48.228;11.684;2022-08-07T15:25:58;25.20;74.30
23403;DHT22;11874;48.228;11.684;2022-08-07T15:28:30;25.20;74.50
23403;DHT22;11874;48.228;11.684;2022-08-07T15:31:22;25.10;74.30
23403;DHT22;11874;48.228;11.684;2022-08-07T15:34:11;25.10;73.70
23403;DHT22;11874;48.228;11.684;2022-08-07T15:36:43;25.10;73.70
23403;DHT22;11874;48.228;11.684;2022-08-07T15:39:35;25.00;73.90
23403;DHT22;11874;48.228;11.684;2022-08-07T15:42:46;25.00;74.30
23403;DHT22;11874;48.228;11.684;2022-08-07T15:45:36;25.00;73.60
23403;DHT22;11874;48.228;11.684;2022-08-07T15:48:26;25.00;73.80
23403;DHT22;11874;48.228;11.684;2022-08-07T15:50:59;25.00;73.90
23403;DHT22;11874;48.228;11.684;2022-08-07T15:53:38;25.00;74.60
23403;DHT22;11874;48.228;11.684;2022-08-07T15:56:21;25.00;74.40
23403;DHT22;11874;48.228;11.684;2022-08-07T15:58:55;24.90;74.10
23403;DHT22;11874;48.228;11.684;2022-08-07T16:01:27;24.90;74.00
23403;DHT22;11874;48.228;11.684;2022-08-07T16:04:07;24.90;74.80
23403;DHT22;11874;48.228;11.684;2022-08-07T16:06:43;24.90;74.70
23403;DHT22;11874;48.228;11.684;2022-08-07T16:09:20;24.90;75.00
23403;DHT22;11874;48.228;11.684;2022-08-07T16:12:15;24.90;75.20
23403;DHT22;11874;48.228;11.684;2022-08-07T16:15:03;24.80;75.00
23403;DHT22;11874;48.228;11.684;2022-08-07T16:17:46;24.80;75.60
23403;DHT22;11874;48.228;11.684;2022-08-07T16:20:37;24.80;75.90
23403;DHT22;11874;48.228;11.684;2022-08-07T16:23:17;24.70;75.90
23403;DHT22;11874;48.228;11.684;2022-08-07T16:26:09;24.60;76.40
23403;DHT22;11874;48.228;11.684;2022-08-07T16:28:55;24.60;76.20
23403;DHT22;11874;48.228;11.684;2022-08-07T16:31:53;24.50;76.60
23403;DHT22;11874;48.228;11.684;2022-08-07T16:34:31;24.50;77.00
23403;DHT22;11874;48.228;11.684;2022-08-07T16:37:24;24.40;76.90
23403;DHT22;11874;48.228;11.684;2022-08-07T16:40:49;24.30;77.40
23403;DHT22;11874;48.228;11.684;2022-08-07T16:43:46;24.20;78.00
23403;DHT22;11874;48.228;11.684;2022-08-07T16:46:56;24.20;77.90
23403;DHT22;11874;48.228;11.684;2022-08-07T16:50:09;24.10;77.90